createdAt,value
2022-07-30T00:02:00.596Z,4.00
2022-07-30T00:06:02.320Z,3.72
2022-07-30T00:10:05.164Z,4.00
2022-07-30T00:18:08.634Z,3.45
2022-07-30T00:22:10.404Z,3.83
2022-07-30T00:26:12.106Z,3.95
2022-07-30T00:30:14.282Z,3.80
2022-07-30T00:34:16.063Z,3.83
2022-07-30T00:38:17.822Z,4.10
2022-07-30T00:42:25.607Z,3.90
2022-07-30T00:46:27.345Z,4.03
2022-07-30T00:50:29.038Z,3.85
2022-07-30T00:54:30.796Z,3.75
2022-07-30T00:58:32.614Z,4.30
2022-07-30T01:02:34.831Z,4.28
2022-07-30T01:06:36.683Z,4.18
2022-07-30T01:10:38.393Z,3.70
2022-07-30T01:14:40.217Z,4.43
2022-07-30T01:19:01.914Z,4.22
2022-07-30T01:23:15.154Z,4.00
2022-07-30T01:27:20.178Z,3.78
2022-07-30T01:31:24.366Z,4.28
2022-07-30T01:35:29.238Z,3.92
2022-07-30T01:39:31.984Z,3.78
2022-07-30T01:48:33.054Z,3.72
2022-07-30T01:52:37.561Z,3.92
2022-07-30T01:56:41.461Z,3.90
2022-07-30T02:00:44.739Z,4.03
2022-07-30T02:04:47.262Z,3.72
2022-07-30T02:08:55.342Z,4.22
2022-07-30T02:13:00.845Z,3.88
2022-07-30T02:17:05.669Z,3.88
2022-07-30T02:21:10.137Z,4.00
2022-07-30T02:25:20.725Z,4.55
2022-07-30T02:29:24.071Z,4.32
2022-07-30T02:33:36.535Z,4.15
2022-07-30T02:37:46.900Z,3.97
2022-07-30T02:41:52.606Z,4.90
2022-07-30T02:45:54.450Z,4.30
2022-07-30T02:49:58.540Z,4.47
2022-07-30T02:54:03.413Z,3.78
2022-07-30T02:58:06.853Z,3.75
2022-07-30T03:02:09.739Z,4.75
2022-07-30T03:06:15.106Z,4.50
2022-07-30T03:10:17.761Z,5.10
2022-07-30T03:14:20.132Z,4.32
2022-07-30T03:18:23.186Z,6.20
2022-07-30T03:22:32.575Z,5.10
2022-07-30T03:26:36.405Z,5.20
2022-07-30T03:30:38.533Z,5.28
2022-07-30T03:34:41.198Z,5.40
2022-07-30T03:38:44.237Z,5.68
2022-07-30T03:42:46.263Z,5.68
2022-07-30T03:46:51.076Z,5.50
2022-07-30T03:50:54.118Z,5.28
2022-07-30T03:54:56.122Z,5.25
2022-07-30T03:58:58.024Z,5.10
2022-07-30T04:02:59.793Z,4.75
2022-07-30T04:07:01.966Z,5.43
2022-07-30T04:11:04.009Z,5.13
2022-07-30T04:16:37.850Z,5.07
2022-07-30T04:19:43.681Z,4.35
2022-07-30T04:24:04.622Z,5.05
2022-07-30T04:28:09.560Z,5.03
2022-07-30T04:32:12.137Z,5.65
2022-07-30T04:36:16.460Z,4.70
2022-07-30T04:40:18.440Z,5.72
2022-07-30T04:44:20.449Z,4.82
2022-07-30T04:48:22.337Z,5.77
2022-07-30T04:52:24.928Z,5.85
2022-07-30T04:56:29.065Z,4.63
2022-07-30T05:00:35.729Z,4.65
2022-07-30T05:04:41.487Z,4.90
2022-07-30T05:08:43.349Z,5.18
2022-07-30T05:12:45.045Z,5.13
2022-07-30T05:16:46.859Z,5.15
2022-07-30T05:20:48.574Z,4.88
2022-07-30T05:24:50.530Z,4.63
2022-07-30T05:28:55.015Z,4.17
2022-07-30T05:32:58.322Z,5.13
2022-07-30T05:37:03.626Z,5.00
2022-07-30T05:41:05.853Z,5.22
2022-07-30T05:45:27.629Z,8.85
2022-07-30T05:49:29.378Z,9.70
2022-07-30T05:53:31.849Z,5.38
2022-07-30T05:57:36.412Z,5.50
2022-07-30T06:01:38.243Z,4.97
2022-07-30T06:05:40.053Z,4.73
2022-07-30T06:09:41.739Z,7.00
2022-07-30T06:13:44.475Z,5.57
2022-07-30T06:22:06.143Z,4.38
2022-07-30T06:26:09.173Z,4.78
2022-07-30T06:30:12.103Z,4.45
2022-07-30T06:34:14.044Z,5.18
2022-07-30T06:38:16.080Z,5.53
2022-07-30T06:42:17.927Z,5.03
2022-07-30T06:46:21.962Z,4.85
2022-07-30T06:50:23.772Z,5.05
2022-07-30T06:54:25.674Z,5.28
2022-07-30T06:58:27.850Z,8.27
2022-07-30T07:02:29.838Z,4.03
2022-07-30T07:06:31.645Z,4.13
2022-07-30T07:10:33.589Z,3.90
2022-07-30T07:14:35.388Z,3.23
2022-07-30T07:18:37.128Z,3.90
2022-07-30T07:22:39.205Z,3.90
2022-07-30T07:26:40.983Z,4.50
2022-07-30T07:30:43.446Z,4.22
2022-07-30T07:34:45.300Z,4.50
2022-07-30T07:38:47.170Z,3.97
2022-07-30T07:42:48.930Z,4.07
2022-07-30T07:46:50.710Z,3.80
2022-07-30T07:50:55.907Z,3.57
2022-07-30T07:55:00.108Z,4.03
2022-07-30T07:59:03.799Z,4.15
2022-07-30T08:03:05.841Z,5.13
2022-07-30T08:07:07.805Z,6.77
2022-07-30T08:11:09.513Z,6.37
2022-07-30T08:15:11.626Z,8.23
2022-07-30T08:19:13.349Z,8.32
2022-07-30T08:23:15.156Z,8.43
2022-07-30T08:27:17.976Z,9.57
2022-07-30T08:31:19.911Z,9.32
2022-07-30T08:35:21.833Z,11.07
2022-07-30T08:39:23.581Z,10.87
2022-07-30T08:43:26.780Z,8.63
2022-07-30T08:47:32.315Z,9.68
2022-07-30T08:51:36.195Z,10.27
2022-07-30T08:55:38.100Z,10.80
2022-07-30T08:59:59.866Z,10.95
2022-07-30T09:04:02.005Z,9.97
2022-07-30T09:08:08.522Z,9.20
2022-07-30T09:12:39.763Z,8.48
2022-07-30T09:16:43.885Z,8.20
2022-07-30T09:20:45.592Z,7.55
2022-07-30T09:24:47.464Z,5.90
2022-07-30T09:28:49.484Z,7.20
2022-07-30T09:32:54.306Z,15.80
2022-07-30T09:36:58.286Z,6.68
2022-07-30T09:41:04.875Z,7.07
2022-07-30T09:45:15.109Z,6.28
2022-07-30T09:49:18.881Z,4.78
2022-07-30T09:53:24.285Z,5.65
2022-07-30T09:57:28.193Z,5.82
2022-07-30T10:01:56.231Z,4.30
2022-07-30T10:06:03.103Z,4.75
2022-07-30T10:10:06.424Z,4.60
2022-07-30T10:14:08.286Z,3.97
2022-07-30T10:18:10.828Z,4.18
2022-07-30T10:22:14.846Z,3.75
2022-07-30T10:26:20.241Z,4.63
2022-07-30T10:30:24.894Z,4.38
2022-07-30T10:34:34.514Z,3.92
2022-07-30T10:38:41.665Z,5.05
2022-07-30T10:43:02.656Z,3.47
2022-07-30T10:47:14.303Z,3.67
2022-07-30T10:51:25.251Z,3.97
2022-07-30T10:55:38.521Z,3.40
2022-07-30T10:59:50.461Z,4.28
2022-07-30T11:04:29.432Z,4.10
2022-07-30T11:08:42.904Z,3.95
2022-07-30T11:12:47.139Z,19.67
2022-07-30T11:16:54.600Z,4.78
2022-07-30T11:21:21.528Z,3.15
2022-07-30T11:25:50.178Z,4.00
2022-07-30T11:29:51.310Z,2.80
2022-07-30T11:33:53.669Z,3.47
2022-07-30T11:38:02.132Z,3.25
2022-07-30T11:42:26.942Z,3.15
2022-07-30T11:46:29.999Z,3.65
2022-07-30T11:50:34.195Z,3.28
2022-07-30T11:54:53.142Z,2.83
2022-07-30T11:59:08.273Z,2.90
2022-07-30T12:03:15.959Z,3.28
2022-07-30T12:07:23.938Z,3.58
2022-07-30T12:11:33.037Z,3.13
2022-07-30T12:15:37.847Z,3.55
2022-07-30T12:19:47.978Z,3.45
2022-07-30T12:23:58.445Z,2.85
2022-07-30T12:28:00.721Z,2.30
2022-07-30T12:32:03.232Z,3.17
2022-07-30T12:36:05.567Z,2.65
2022-07-30T12:44:44.708Z,2.58
2022-07-30T12:48:54.358Z,2.78
2022-07-30T12:52:59.068Z,2.83
2022-07-30T12:57:06.196Z,2.45
2022-07-30T13:01:09.478Z,3.00
2022-07-30T13:05:12.144Z,2.92
2022-07-30T13:09:20.373Z,3.20
2022-07-30T13:13:22.246Z,3.30
2022-07-30T13:17:24.142Z,2.95
2022-07-30T13:21:26.120Z,3.25
2022-07-30T13:25:38.698Z,2.78
2022-07-30T13:29:40.926Z,4.07
2022-07-30T13:33:42.705Z,2.47
2022-07-30T13:37:44.478Z,3.05
2022-07-30T13:41:46.507Z,2.40
2022-07-30T13:45:49.336Z,3.00
2022-07-30T13:49:51.158Z,3.58
2022-07-30T13:53:52.937Z,2.63
2022-07-30T13:57:55.025Z,2.33
2022-07-30T14:01:57.293Z,2.50
2022-07-30T14:10:13.198Z,2.70
2022-07-30T14:14:15.039Z,2.97
2022-07-30T14:18:17.297Z,2.60
2022-07-30T14:26:36.545Z,2.53
2022-07-30T14:30:39.064Z,2.88
2022-07-30T14:38:56.669Z,3.90
2022-07-30T14:43:14.812Z,2.50
2022-07-30T14:47:24.006Z,2.65
2022-07-30T14:51:32.306Z,2.30
2022-07-30T14:55:36.774Z,2.60
2022-07-30T14:59:39.339Z,2.33
2022-07-30T15:03:48.526Z,2.10
2022-07-30T15:08:00.406Z,2.08
2022-07-30T15:12:08.222Z,2.20
2022-07-30T15:16:11.140Z,1.90
2022-07-30T15:20:13.435Z,1.90
2022-07-30T15:24:15.334Z,2.10
2022-07-30T15:28:17.164Z,1.92
2022-07-30T15:32:19.210Z,2.10
2022-07-30T15:36:21.292Z,1.88
2022-07-30T15:40:23.299Z,1.80
2022-07-30T15:44:25.785Z,2.17
2022-07-30T15:48:35.571Z,4.93
2022-07-30T15:52:40.223Z,2.15
2022-07-30T15:56:45.248Z,2.65
2022-07-30T16:00:47.120Z,1.83
2022-07-30T16:04:53.312Z,1.80
2022-07-30T16:09:05.187Z,1.63
2022-07-30T16:13:10.186Z,1.52
2022-07-30T16:17:14.170Z,3.00
2022-07-30T16:21:18.687Z,1.77
2022-07-30T16:25:28.470Z,1.38
2022-07-30T16:29:30.696Z,1.20
2022-07-30T16:37:38.796Z,1.40
2022-07-30T16:41:42.232Z,1.40
2022-07-30T16:45:47.108Z,1.58
2022-07-30T16:49:49.087Z,1.50
2022-07-30T16:53:53.684Z,1.52
2022-07-30T16:57:56.373Z,1.90
2022-07-30T17:01:58.491Z,1.95
2022-07-30T17:06:04.847Z,1.92
2022-07-30T17:10:11.079Z,2.20
2022-07-30T17:14:16.055Z,1.90
2022-07-30T17:18:21.357Z,1.92
2022-07-30T17:22:43.785Z,2.33
2022-07-30T17:30:50.960Z,1.90
2022-07-30T17:35:13.719Z,1.63
2022-07-30T17:40:04.290Z,1.95
2022-07-30T17:48:42.117Z,1.90
2022-07-30T17:53:35.650Z,1.90
2022-07-30T17:57:54.125Z,1.90
2022-07-30T18:06:44.198Z,2.00
2022-07-30T18:10:46.262Z,2.33
2022-07-30T18:14:54.546Z,2.28
2022-07-30T18:19:03.310Z,2.35
2022-07-30T18:23:16.449Z,2.00
2022-07-30T18:27:19.062Z,1.92
2022-07-30T18:31:20.880Z,2.22
2022-07-30T18:35:29.777Z,2.10
2022-07-30T18:39:31.968Z,2.22
2022-07-30T18:43:48.345Z,2.30
2022-07-30T18:47:51.237Z,2.40
2022-07-30T18:51:53.251Z,2.58
2022-07-30T18:55:58.952Z,2.38
2022-07-30T19:00:01.377Z,1.90
2022-07-30T19:08:06.473Z,2.17
2022-07-30T19:12:19.265Z,2.13
2022-07-30T19:16:21.500Z,2.30
2022-07-30T19:20:24.130Z,2.80
2022-07-30T19:24:31.691Z,2.25
2022-07-30T19:28:34.860Z,2.00
2022-07-30T19:32:36.965Z,2.80
2022-07-30T19:36:39.825Z,2.30
2022-07-30T19:40:47.060Z,2.50
2022-07-30T19:44:49.030Z,2.00
2022-07-30T19:48:51.140Z,2.58
2022-07-30T19:52:54.945Z,2.20
2022-07-30T19:56:56.895Z,2.65
2022-07-30T20:00:59.052Z,3.10
2022-07-30T20:05:06.162Z,2.78
2022-07-30T20:09:15.014Z,2.60
2022-07-30T20:13:17.110Z,3.53
2022-07-30T20:17:23.832Z,2.72
2022-07-30T20:21:56.066Z,6.90
2022-07-30T20:25:51.778Z,10.55
2022-07-30T20:29:56.230Z,7.95
2022-07-30T20:33:58.171Z,7.43
2022-07-30T20:38:00.400Z,6.72
2022-07-30T20:42:10.182Z,5.07
2022-07-30T20:46:13.535Z,3.10
2022-07-30T20:50:16.826Z,3.72
2022-07-30T20:54:18.782Z,4.07
2022-07-30T20:58:22.848Z,3.15
2022-07-30T21:02:26.930Z,4.05
2022-07-30T21:06:31.389Z,3.03
2022-07-30T21:10:41.249Z,2.80
2022-07-30T21:14:48.545Z,2.65
2022-07-30T21:18:56.244Z,3.35
2022-07-30T21:23:06.255Z,2.22
2022-07-30T21:27:13.264Z,3.40
2022-07-30T21:31:15.487Z,4.70
2022-07-30T21:35:17.651Z,4.10
2022-07-30T21:39:28.628Z,3.45
2022-07-30T21:43:34.606Z,4.10
2022-07-30T21:47:36.480Z,3.00
2022-07-30T21:51:40.842Z,4.35
2022-07-30T21:55:53.208Z,4.82
2022-07-30T21:59:58.331Z,8.05
2022-07-30T22:04:07.687Z,3.40
2022-07-30T22:08:12.622Z,3.40
2022-07-30T22:12:18.136Z,3.03
2022-07-30T22:16:21.497Z,2.95
2022-07-30T22:20:23.729Z,2.42
2022-07-30T22:24:30.122Z,3.10
2022-07-30T22:28:32.706Z,2.83
2022-07-30T22:32:34.467Z,2.87
2022-07-30T22:36:36.548Z,2.65
2022-07-30T22:40:39.042Z,2.50
2022-07-30T22:44:45.724Z,2.92
2022-07-30T22:48:49.340Z,2.80
2022-07-30T22:52:56.654Z,3.10
2022-07-30T22:57:11.556Z,2.35
2022-07-30T23:01:16.588Z,2.70
2022-07-30T23:05:19.030Z,3.03
2022-07-30T23:09:21.033Z,2.45
2022-07-30T23:13:22.856Z,2.90
2022-07-30T23:17:25.478Z,2.60
2022-07-30T23:25:38.626Z,2.60
2022-07-30T23:29:40.649Z,3.33
2022-07-30T23:33:42.419Z,2.40
2022-07-30T23:37:48.732Z,2.57
2022-07-30T23:41:51.311Z,2.65
2022-07-30T23:45:53.182Z,3.17
2022-07-30T23:49:54.974Z,2.63
2022-07-30T23:53:58.218Z,2.67
2022-07-30T23:58:00.350Z,2.40
